sensor_id;sensor_type;location;lat;lon;timestamp;P1;durP1;ratioP1;P2;durP2;ratioP2
13366;SDS011;6752;52.612;13.630;2024-03-07T00:02:50;86.40;;;40.73;;
13366;SDS011;6752;52.612;13.630;2024-03-07T00:07:54;90.27;;;40.10;;
13366;SDS011;6752;52.612;13.630;2024-03-07T00:13:01;93.07;;;41.40;;
13366;SDS011;6752;52.612;13.630;2024-03-07T00:18:03;93.27;;;41.33;;
13366;SDS011;6752;52.612;13.630;2024-03-07T00:23:07;96.10;;;41.47;;
13366;SDS011;6752;52.612;13.630;2024-03-07T00:28:09;88.33;;;39.87;;
13366;SDS011;6752;52.612;13.630;2024-03-07T00:33:12;82.23;;;40.00;;
13366;SDS011;6752;52.612;13.630;2024-03-07T00:38:14;76.73;;;39.80;;
13366;SDS011;6752;52.612;13.630;2024-03-07T00:43:17;78.50;;;39.47;;
13366;SDS011;6752;52.612;13.630;2024-03-07T00:48:19;81.00;;;40.30;;
13366;SDS011;6752;52.612;13.630;2024-03-07T00:53:23;88.67;;;42.50;;
13366;SDS011;6752;52.612;13.630;2024-03-07T00:58:26;76.93;;;45.70;;
13366;SDS011;6752;52.612;13.630;2024-03-07T01:03:28;75.70;;;38.93;;
13366;SDS011;6752;52.612;13.630;2024-03-07T01:08:31;73.67;;;37.73;;
13366;SDS011;6752;52.612;13.630;2024-03-07T01:13:36;66.27;;;38.17;;
13366;SDS011;6752;52.612;13.630;2024-03-07T01:18:38;63.63;;;36.60;;
13366;SDS011;6752;52.612;13.630;2024-03-07T01:23:41;69.37;;;37.07;;
13366;SDS011;6752;52.612;13.630;2024-03-07T01:28:43;67.13;;;36.13;;
13366;SDS011;6752;52.612;13.630;2024-03-07T01:33:47;74.70;;;38.13;;
13366;SDS011;6752;52.612;13.630;2024-03-07T01:38:49;67.93;;;35.13;;
13366;SDS011;6752;52.612;13.630;2024-03-07T01:43:53;66.60;;;37.73;;
13366;SDS011;6752;52.612;13.630;2024-03-07T01:48:57;69.68;;;45.95;;
13366;SDS011;6752;52.612;13.630;2024-03-07T01:53:59;69.60;;;41.67;;
13366;SDS011;6752;52.612;13.630;2024-03-07T01:59:01;73.97;;;42.43;;
13366;SDS011;6752;52.612;13.630;2024-03-07T02:04:03;79.40;;;43.30;;
13366;SDS011;6752;52.612;13.630;2024-03-07T02:09:07;74.10;;;40.53;;
13366;SDS011;6752;52.612;13.630;2024-03-07T02:14:10;65.72;;;45.00;;
13366;SDS011;6752;52.612;13.630;2024-03-07T02:19:14;68.37;;;40.23;;
13366;SDS011;6752;52.612;13.630;2024-03-07T02:24:16;67.03;;;39.33;;
13366;SDS011;6752;52.612;13.630;2024-03-07T02:29:25;69.37;;;38.33;;
13366;SDS011;6752;52.612;13.630;2024-03-07T02:34:28;64.03;;;37.27;;
13366;SDS011;6752;52.612;13.630;2024-03-07T02:39:30;65.90;;;37.10;;
13366;SDS011;6752;52.612;13.630;2024-03-07T02:44:34;67.50;;;36.93;;
13366;SDS011;6752;52.612;13.630;2024-03-07T02:49:36;67.33;;;36.90;;
13366;SDS011;6752;52.612;13.630;2024-03-07T02:54:39;62.83;;;36.63;;
13366;SDS011;6752;52.612;13.630;2024-03-07T02:59:41;66.77;;;37.40;;
13366;SDS011;6752;52.612;13.630;2024-03-07T03:04:44;58.83;;;36.00;;
13366;SDS011;6752;52.612;13.630;2024-03-07T03:09:47;53.85;;;38.38;;
13366;SDS011;6752;52.612;13.630;2024-03-07T03:14:50;58.40;;;35.83;;
13366;SDS011;6752;52.612;13.630;2024-03-07T03:19:54;53.97;;;33.63;;
13366;SDS011;6752;52.612;13.630;2024-03-07T03:25:03;51.80;;;31.23;;
13366;SDS011;6752;52.612;13.630;2024-03-07T03:30:05;47.60;;;30.97;;
13366;SDS011;6752;52.612;13.630;2024-03-07T03:35:08;49.10;;;30.90;;
13366;SDS011;6752;52.612;13.630;2024-03-07T03:40:11;46.00;;;29.37;;
13366;SDS011;6752;52.612;13.630;2024-03-07T03:45:13;40.53;;;28.00;;
13366;SDS011;6752;52.612;13.630;2024-03-07T03:50:18;44.00;;;28.80;;
13366;SDS011;6752;52.612;13.630;2024-03-07T03:55:21;40.27;;;27.30;;
13366;SDS011;6752;52.612;13.630;2024-03-07T04:00:26;40.57;;;26.53;;
13366;SDS011;6752;52.612;13.630;2024-03-07T04:05:30;38.83;;;26.27;;
13366;SDS011;6752;52.612;13.630;2024-03-07T04:10:35;39.07;;;25.60;;
13366;SDS011;6752;52.612;13.630;2024-03-07T04:15:40;37.23;;;25.63;;
13366;SDS011;6752;52.612;13.630;2024-03-07T04:20:43;37.10;;;26.10;;
13366;SDS011;6752;52.612;13.630;2024-03-07T04:25:51;35.60;;;29.05;;
13366;SDS011;6752;52.612;13.630;2024-03-07T04:30:59;34.00;;;25.60;;
13366;SDS011;6752;52.612;13.630;2024-03-07T04:36:05;37.60;;;25.27;;
13366;SDS011;6752;52.612;13.630;2024-03-07T04:41:08;37.00;;;25.80;;
13366;SDS011;6752;52.612;13.630;2024-03-07T04:46:12;35.40;;;25.40;;
13366;SDS011;6752;52.612;13.630;2024-03-07T04:51:22;37.63;;;25.80;;
13366;SDS011;6752;52.612;13.630;2024-03-07T04:56:24;34.53;;;24.80;;
13366;SDS011;6752;52.612;13.630;2024-03-07T05:01:27;37.77;;;25.33;;
13366;SDS011;6752;52.612;13.630;2024-03-07T05:06:29;38.37;;;25.57;;
13366;SDS011;6752;52.612;13.630;2024-03-07T05:11:32;38.93;;;26.60;;
13366;SDS011;6752;52.612;13.630;2024-03-07T05:16:46;39.80;;;25.80;;
13366;SDS011;6752;52.612;13.630;2024-03-07T05:28:06;36.33;;;25.87;;
13366;SDS011;6752;52.612;13.630;2024-03-07T05:33:09;38.63;;;25.40;;
13366;SDS011;6752;52.612;13.630;2024-03-07T05:38:11;37.30;;;25.50;;
13366;SDS011;6752;52.612;13.630;2024-03-07T05:43:13;35.50;;;24.17;;
13366;SDS011;6752;52.612;13.630;2024-03-07T05:48:16;36.73;;;24.80;;
13366;SDS011;6752;52.612;13.630;2024-03-07T05:53:18;35.23;;;24.03;;
13366;SDS011;6752;52.612;13.630;2024-03-07T05:58:20;34.27;;;24.17;;
13366;SDS011;6752;52.612;13.630;2024-03-07T06:03:23;36.20;;;22.53;;
13366;SDS011;6752;52.612;13.630;2024-03-07T06:08:25;37.40;;;24.50;;
13366;SDS011;6752;52.612;13.630;2024-03-07T06:13:28;37.30;;;24.90;;
13366;SDS011;6752;52.612;13.630;2024-03-07T06:18:30;37.40;;;25.07;;
13366;SDS011;6752;52.612;13.630;2024-03-07T06:23:32;34.87;;;24.37;;
13366;SDS011;6752;52.612;13.630;2024-03-07T06:28:35;34.30;;;24.20;;
13366;SDS011;6752;52.612;13.630;2024-03-07T06:33:37;35.03;;;23.70;;
13366;SDS011;6752;52.612;13.630;2024-03-07T06:38:39;33.53;;;23.40;;
13366;SDS011;6752;52.612;13.630;2024-03-07T06:43:44;35.30;;;24.73;;
13366;SDS011;6752;52.612;13.630;2024-03-07T06:48:47;34.17;;;28.92;;
13366;SDS011;6752;52.612;13.630;2024-03-07T06:53:49;32.17;;;22.93;;
13366;SDS011;6752;52.612;13.630;2024-03-07T06:58:52;34.22;;;28.62;;
13366;SDS011;6752;52.612;13.630;2024-03-07T07:03:54;33.57;;;24.90;;
13366;SDS011;6752;52.612;13.630;2024-03-07T07:08:56;33.40;;;23.63;;
13366;SDS011;6752;52.612;13.630;2024-03-07T07:13:59;32.27;;;23.23;;
13366;SDS011;6752;52.612;13.630;2024-03-07T07:19:01;30.17;;;21.63;;
13366;SDS011;6752;52.612;13.630;2024-03-07T07:24:03;26.23;;;19.80;;
13366;SDS011;6752;52.612;13.630;2024-03-07T07:29:06;25.07;;;17.53;;
13366;SDS011;6752;52.612;13.630;2024-03-07T07:34:08;24.47;;;17.73;;
13366;SDS011;6752;52.612;13.630;2024-03-07T07:39:11;23.97;;;17.37;;
13366;SDS011;6752;52.612;13.630;2024-03-07T07:44:16;20.70;;;18.50;;
13366;SDS011;6752;52.612;13.630;2024-03-07T07:49:18;23.00;;;17.37;;
13366;SDS011;6752;52.612;13.630;2024-03-07T07:54:20;22.77;;;16.27;;
13366;SDS011;6752;52.612;13.630;2024-03-07T07:59:23;20.23;;;16.13;;
13366;SDS011;6752;52.612;13.630;2024-03-07T08:04:25;23.60;;;16.90;;
13366;SDS011;6752;52.612;13.630;2024-03-07T08:09:27;19.20;;;15.63;;
13366;SDS011;6752;52.612;13.630;2024-03-07T08:14:30;22.27;;;17.13;;
13366;SDS011;6752;52.612;13.630;2024-03-07T08:19:32;19.90;;;15.27;;
13366;SDS011;6752;52.612;13.630;2024-03-07T08:24:34;23.43;;;16.67;;
13366;SDS011;6752;52.612;13.630;2024-03-07T08:29:37;21.13;;;16.03;;
13366;SDS011;6752;52.612;13.630;2024-03-07T08:34:39;21.40;;;15.77;;
13366;SDS011;6752;52.612;13.630;2024-03-07T08:39:42;19.47;;;14.77;;
13366;SDS011;6752;52.612;13.630;2024-03-07T08:44:44;20.63;;;15.97;;
13366;SDS011;6752;52.612;13.630;2024-03-07T08:49:46;19.93;;;15.27;;
13366;SDS011;6752;52.612;13.630;2024-03-07T08:54:49;20.27;;;15.43;;
13366;SDS011;6752;52.612;13.630;2024-03-07T08:59:51;16.87;;;13.90;;
13366;SDS011;6752;52.612;13.630;2024-03-07T09:04:53;15.40;;;12.93;;
13366;SDS011;6752;52.612;13.630;2024-03-07T09:09:56;16.17;;;14.48;;
13366;SDS011;6752;52.612;13.630;2024-03-07T09:14:58;16.23;;;12.93;;
13366;SDS011;6752;52.612;13.630;2024-03-07T09:20:00;16.13;;;12.83;;
13366;SDS011;6752;52.612;13.630;2024-03-07T09:25:03;15.57;;;12.60;;
13366;SDS011;6752;52.612;13.630;2024-03-07T09:30:06;16.07;;;13.23;;
13366;SDS011;6752;52.612;13.630;2024-03-07T09:35:08;15.23;;;12.80;;
13366;SDS011;6752;52.612;13.630;2024-03-07T09:40:10;16.33;;;12.80;;
13366;SDS011;6752;52.612;13.630;2024-03-07T09:45:16;16.07;;;12.87;;
13366;SDS011;6752;52.612;13.630;2024-03-07T09:50:19;14.83;;;12.87;;
13366;SDS011;6752;52.612;13.630;2024-03-07T09:55:23;15.20;;;11.90;;
13366;SDS011;6752;52.612;13.630;2024-03-07T10:00:26;15.67;;;12.63;;
13366;SDS011;6752;52.612;13.630;2024-03-07T10:05:28;14.98;;;13.57;;
13366;SDS011;6752;52.612;13.630;2024-03-07T10:10:30;15.73;;;12.43;;
13366;SDS011;6752;52.612;13.630;2024-03-07T10:15:33;14.83;;;11.73;;
13366;SDS011;6752;52.612;13.630;2024-03-07T10:20:36;15.50;;;11.90;;
13366;SDS011;6752;52.612;13.630;2024-03-07T10:25:37;14.93;;;12.53;;
13366;SDS011;6752;52.612;13.630;2024-03-07T10:30:40;13.50;;;11.47;;
13366;SDS011;6752;52.612;13.630;2024-03-07T10:35:42;14.50;;;11.23;;
13366;SDS011;6752;52.612;13.630;2024-03-07T10:40:47;14.63;;;11.80;;
13366;SDS011;6752;52.612;13.630;2024-03-07T10:45:50;14.17;;;10.73;;
13366;SDS011;6752;52.612;13.630;2024-03-07T10:56:18;13.77;;;11.23;;
13366;SDS011;6752;52.612;13.630;2024-03-07T11:01:18;16.20;;;11.83;;
13366;SDS011;6752;52.612;13.630;2024-03-07T11:06:20;14.73;;;11.53;;
13366;SDS011;6752;52.612;13.630;2024-03-07T11:11:23;14.80;;;11.50;;
13366;SDS011;6752;52.612;13.630;2024-03-07T11:16:25;14.03;;;12.40;;
13366;SDS011;6752;52.612;13.630;2024-03-07T11:21:43;16.67;;;13.13;;
13366;SDS011;6752;52.612;13.630;2024-03-07T11:26:47;15.43;;;12.23;;
13366;SDS011;6752;52.612;13.630;2024-03-07T11:31:47;13.30;;;11.50;;
13366;SDS011;6752;52.612;13.630;2024-03-07T11:36:50;13.90;;;12.13;;
13366;SDS011;6752;52.612;13.630;2024-03-07T11:41:52;14.13;;;11.80;;
13366;SDS011;6752;52.612;13.630;2024-03-07T11:46:54;13.93;;;12.43;;
13366;SDS011;6752;52.612;13.630;2024-03-07T11:51:57;14.70;;;12.63;;
13366;SDS011;6752;52.612;13.630;2024-03-07T11:57:02;15.93;;;13.43;;
13366;SDS011;6752;52.612;13.630;2024-03-07T12:02:05;12.93;;;11.37;;
13366;SDS011;6752;52.612;13.630;2024-03-07T12:07:07;14.67;;;13.03;;
13366;SDS011;6752;52.612;13.630;2024-03-07T12:12:09;15.23;;;13.63;;
13366;SDS011;6752;52.612;13.630;2024-03-07T12:17:12;16.63;;;14.10;;
13366;SDS011;6752;52.612;13.630;2024-03-07T12:22:14;16.17;;;14.43;;
13366;SDS011;6752;52.612;13.630;2024-03-07T12:27:16;15.67;;;13.97;;
13366;SDS011;6752;52.612;13.630;2024-03-07T12:32:19;16.43;;;13.27;;
13366;SDS011;6752;52.612;13.630;2024-03-07T12:37:21;16.20;;;14.50;;
13366;SDS011;6752;52.612;13.630;2024-03-07T12:42:24;15.37;;;13.77;;
13366;SDS011;6752;52.612;13.630;2024-03-07T12:47:26;15.67;;;14.03;;
13366;SDS011;6752;52.612;13.630;2024-03-07T12:52:28;14.43;;;12.93;;
13366;SDS011;6752;52.612;13.630;2024-03-07T12:57:31;15.67;;;14.07;;
13366;SDS011;6752;52.612;13.630;2024-03-07T13:02:33;15.00;;;13.40;;
13366;SDS011;6752;52.612;13.630;2024-03-07T13:07:35;15.60;;;13.73;;
13366;SDS011;6752;52.612;13.630;2024-03-07T13:12:38;18.27;;;15.17;;
13366;SDS011;6752;52.612;13.630;2024-03-07T13:17:40;17.13;;;15.43;;
13366;SDS011;6752;52.612;13.630;2024-03-07T13:22:43;16.77;;;14.97;;
13366;SDS011;6752;52.612;13.630;2024-03-07T13:27:59;17.30;;;15.60;;
13366;SDS011;6752;52.612;13.630;2024-03-07T13:33:11;16.80;;;15.00;;
13366;SDS011;6752;52.612;13.630;2024-03-07T13:38:13;17.27;;;15.37;;
13366;SDS011;6752;52.612;13.630;2024-03-07T13:43:16;17.00;;;15.03;;
13366;SDS011;6752;52.612;13.630;2024-03-07T13:48:18;16.93;;;13.03;;
13366;SDS011;6752;52.612;13.630;2024-03-07T13:53:21;15.10;;;12.60;;
13366;SDS011;6752;52.612;13.630;2024-03-07T14:09:13;13.97;;;12.47;;
13366;SDS011;6752;52.612;13.630;2024-03-07T14:14:44;16.80;;;12.83;;
13366;SDS011;6752;52.612;13.630;2024-03-07T14:30:36;15.33;;;12.63;;
13366;SDS011;6752;52.612;13.630;2024-03-07T14:35:58;15.80;;;12.93;;
13366;SDS011;6752;52.612;13.630;2024-03-07T14:40:59;15.67;;;13.30;;
13366;SDS011;6752;52.612;13.630;2024-03-07T14:46:02;15.87;;;12.30;;
13366;SDS011;6752;52.612;13.630;2024-03-07T14:51:04;15.30;;;12.40;;
13366;SDS011;6752;52.612;13.630;2024-03-07T14:56:07;14.07;;;12.30;;
13366;SDS011;6752;52.612;13.630;2024-03-07T15:01:09;14.40;;;12.53;;
13366;SDS011;6752;52.612;13.630;2024-03-07T15:06:11;15.33;;;13.30;;
13366;SDS011;6752;52.612;13.630;2024-03-07T15:11:22;13.90;;;11.97;;
13366;SDS011;6752;52.612;13.630;2024-03-07T15:16:25;14.23;;;12.47;;
13366;SDS011;6752;52.612;13.630;2024-03-07T15:21:27;13.30;;;11.90;;
13366;SDS011;6752;52.612;13.630;2024-03-07T15:26:30;14.43;;;12.67;;
13366;SDS011;6752;52.612;13.630;2024-03-07T15:31:34;16.30;;;12.97;;
13366;SDS011;6752;52.612;13.630;2024-03-07T15:36:37;15.57;;;13.97;;
13366;SDS011;6752;52.612;13.630;2024-03-07T15:41:39;16.08;;;14.40;;
13366;SDS011;6752;52.612;13.630;2024-03-07T15:46:42;14.83;;;12.33;;
13366;SDS011;6752;52.612;13.630;2024-03-07T15:51:44;13.90;;;12.30;;
13366;SDS011;6752;52.612;13.630;2024-03-07T15:56:46;15.50;;;12.17;;
13366;SDS011;6752;52.612;13.630;2024-03-07T16:01:49;14.67;;;12.03;;
13366;SDS011;6752;52.612;13.630;2024-03-07T16:06:51;16.50;;;12.87;;
13366;SDS011;6752;52.612;13.630;2024-03-07T16:11:53;13.30;;;11.90;;
13366;SDS011;6752;52.612;13.630;2024-03-07T16:16:56;13.93;;;11.47;;
13366;SDS011;6752;52.612;13.630;2024-03-07T16:21:58;16.70;;;13.17;;
13366;SDS011;6752;52.612;13.630;2024-03-07T16:27:00;13.90;;;11.37;;
13366;SDS011;6752;52.612;13.630;2024-03-07T16:32:03;14.60;;;11.93;;
13366;SDS011;6752;52.612;13.630;2024-03-07T16:37:08;14.00;;;11.97;;
13366;SDS011;6752;52.612;13.630;2024-03-07T16:42:10;15.27;;;12.27;;
13366;SDS011;6752;52.612;13.630;2024-03-07T16:47:13;14.17;;;11.40;;
13366;SDS011;6752;52.612;13.630;2024-03-07T16:52:15;13.80;;;11.00;;
13366;SDS011;6752;52.612;13.630;2024-03-07T16:57:17;12.73;;;10.77;;
13366;SDS011;6752;52.612;13.630;2024-03-07T17:02:20;13.33;;;11.23;;
13366;SDS011;6752;52.612;13.630;2024-03-07T17:07:23;14.57;;;12.98;;
13366;SDS011;6752;52.612;13.630;2024-03-07T17:12:25;15.53;;;12.43;;
13366;SDS011;6752;52.612;13.630;2024-03-07T17:17:28;14.73;;;12.20;;
13366;SDS011;6752;52.612;13.630;2024-03-07T17:22:30;15.10;;;12.30;;
13366;SDS011;6752;52.612;13.630;2024-03-07T17:27:32;12.93;;;11.13;;
13366;SDS011;6752;52.612;13.630;2024-03-07T17:37:50;14.63;;;13.13;;
13366;SDS011;6752;52.612;13.630;2024-03-07T17:42:55;13.67;;;10.97;;
13366;SDS011;6752;52.612;13.630;2024-03-07T17:47:57;15.00;;;11.43;;
13366;SDS011;6752;52.612;13.630;2024-03-07T17:53:00;13.63;;;11.17;;
13366;SDS011;6752;52.612;13.630;2024-03-07T17:58:04;12.50;;;10.70;;
13366;SDS011;6752;52.612;13.630;2024-03-07T18:03:07;15.93;;;11.30;;
13366;SDS011;6752;52.612;13.630;2024-03-07T18:08:09;14.67;;;10.70;;
13366;SDS011;6752;52.612;13.630;2024-03-07T18:13:11;17.07;;;12.70;;
13366;SDS011;6752;52.612;13.630;2024-03-07T18:18:14;15.57;;;11.53;;
13366;SDS011;6752;52.612;13.630;2024-03-07T18:23:16;17.67;;;12.47;;
13366;SDS011;6752;52.612;13.630;2024-03-07T18:28:19;17.90;;;12.83;;
13366;SDS011;6752;52.612;13.630;2024-03-07T18:33:21;17.23;;;13.33;;
13366;SDS011;6752;52.612;13.630;2024-03-07T18:38:24;18.33;;;13.10;;
13366;SDS011;6752;52.612;13.630;2024-03-07T18:43:27;15.10;;;13.50;;
13366;SDS011;6752;52.612;13.630;2024-03-07T18:48:33;16.63;;;12.93;;
13366;SDS011;6752;52.612;13.630;2024-03-07T18:53:35;16.00;;;11.93;;
13366;SDS011;6752;52.612;13.630;2024-03-07T18:58:38;15.87;;;12.70;;
13366;SDS011;6752;52.612;13.630;2024-03-07T19:03:42;13.90;;;10.47;;
13366;SDS011;6752;52.612;13.630;2024-03-07T19:08:44;15.10;;;11.43;;
13366;SDS011;6752;52.612;13.630;2024-03-07T19:13:47;13.80;;;11.03;;
13366;SDS011;6752;52.612;13.630;2024-03-07T19:18:49;17.00;;;12.03;;
13366;SDS011;6752;52.612;13.630;2024-03-07T19:23:53;14.43;;;11.50;;
13366;SDS011;6752;52.612;13.630;2024-03-07T19:28:55;14.37;;;12.87;;
13366;SDS011;6752;52.612;13.630;2024-03-07T19:33:57;15.23;;;11.97;;
13366;SDS011;6752;52.612;13.630;2024-03-07T19:39:00;14.47;;;11.57;;
13366;SDS011;6752;52.612;13.630;2024-03-07T19:44:02;13.80;;;10.47;;
13366;SDS011;6752;52.612;13.630;2024-03-07T19:49:06;15.47;;;11.47;;
13366;SDS011;6752;52.612;13.630;2024-03-07T19:54:10;15.37;;;11.27;;
13366;SDS011;6752;52.612;13.630;2024-03-07T19:59:12;17.13;;;11.93;;
13366;SDS011;6752;52.612;13.630;2024-03-07T20:04:14;15.93;;;13.05;;
13366;SDS011;6752;52.612;13.630;2024-03-07T20:09:17;15.70;;;11.73;;
13366;SDS011;6752;52.612;13.630;2024-03-07T20:14:19;17.23;;;12.37;;
13366;SDS011;6752;52.612;13.630;2024-03-07T20:19:23;14.98;;;13.35;;
13366;SDS011;6752;52.612;13.630;2024-03-07T20:24:26;16.33;;;12.67;;
13366;SDS011;6752;52.612;13.630;2024-03-07T20:29:28;16.00;;;12.67;;
13366;SDS011;6752;52.612;13.630;2024-03-07T20:34:32;18.67;;;12.93;;
13366;SDS011;6752;52.612;13.630;2024-03-07T20:39:34;18.47;;;12.67;;
13366;SDS011;6752;52.612;13.630;2024-03-07T20:44:36;18.67;;;15.60;;
13366;SDS011;6752;52.612;13.630;2024-03-07T20:49:39;17.23;;;12.57;;
13366;SDS011;6752;52.612;13.630;2024-03-07T20:54:41;18.97;;;13.67;;
13366;SDS011;6752;52.612;13.630;2024-03-07T20:59:44;19.07;;;12.03;;
13366;SDS011;6752;52.612;13.630;2024-03-07T21:04:46;17.73;;;12.73;;
13366;SDS011;6752;52.612;13.630;2024-03-07T21:09:48;16.10;;;14.30;;
13366;SDS011;6752;52.612;13.630;2024-03-07T21:14:51;17.33;;;11.60;;
13366;SDS011;6752;52.612;13.630;2024-03-07T21:19:53;15.30;;;13.32;;
13366;SDS011;6752;52.612;13.630;2024-03-07T21:24:55;16.90;;;12.50;;
13366;SDS011;6752;52.612;13.630;2024-03-07T21:29:58;16.15;;;14.00;;
13366;SDS011;6752;52.612;13.630;2024-03-07T21:35:00;16.97;;;14.20;;
13366;SDS011;6752;52.612;13.630;2024-03-07T21:40:02;15.83;;;12.27;;
13366;SDS011;6752;52.612;13.630;2024-03-07T21:45:05;16.50;;;11.80;;
13366;SDS011;6752;52.612;13.630;2024-03-07T21:50:11;16.10;;;13.98;;
13366;SDS011;6752;52.612;13.630;2024-03-07T21:55:13;18.50;;;14.33;;
13366;SDS011;6752;52.612;13.630;2024-03-07T22:00:15;16.90;;;14.02;;
13366;SDS011;6752;52.612;13.630;2024-03-07T22:05:20;15.73;;;12.50;;
13366;SDS011;6752;52.612;13.630;2024-03-07T22:10:23;19.10;;;13.07;;
13366;SDS011;6752;52.612;13.630;2024-03-07T22:15:25;16.98;;;14.70;;
13366;SDS011;6752;52.612;13.630;2024-03-07T22:20:28;17.07;;;12.47;;
13366;SDS011;6752;52.612;13.630;2024-03-07T22:25:30;17.70;;;12.80;;
13366;SDS011;6752;52.612;13.630;2024-03-07T22:30:32;18.00;;;12.63;;
13366;SDS011;6752;52.612;13.630;2024-03-07T22:35:35;23.67;;;16.13;;
13366;SDS011;6752;52.612;13.630;2024-03-07T22:40:37;18.37;;;15.77;;
13366;SDS011;6752;52.612;13.630;2024-03-07T22:45:39;19.60;;;14.03;;
13366;SDS011;6752;52.612;13.630;2024-03-07T22:50:42;20.60;;;13.87;;
13366;SDS011;6752;52.612;13.630;2024-03-07T22:55:44;20.27;;;13.30;;
13366;SDS011;6752;52.612;13.630;2024-03-07T23:00:47;17.02;;;14.05;;
13366;SDS011;6752;52.612;13.630;2024-03-07T23:05:49;18.60;;;12.60;;
13366;SDS011;6752;52.612;13.630;2024-03-07T23:10:51;20.30;;;12.83;;
13366;SDS011;6752;52.612;13.630;2024-03-07T23:15:54;18.33;;;12.87;;
13366;SDS011;6752;52.612;13.630;2024-03-07T23:20:56;16.80;;;12.13;;
13366;SDS011;6752;52.612;13.630;2024-03-07T23:25:58;15.87;;;11.60;;
13366;SDS011;6752;52.612;13.630;2024-03-07T23:31:01;16.53;;;12.13;;
13366;SDS011;6752;52.612;13.630;2024-03-07T23:36:04;18.77;;;12.37;;
13366;SDS011;6752;52.612;13.630;2024-03-07T23:41:07;19.53;;;13.03;;
13366;SDS011;6752;52.612;13.630;2024-03-07T23:46:10;19.20;;;12.70;;
13366;SDS011;6752;52.612;13.630;2024-03-07T23:51:13;18.97;;;13.10;;
13366;SDS011;6752;52.612;13.630;2024-03-07T23:56:15;18.13;;;12.83;;
